Atlanta, Georgia
Traffic Map
Current Weather Conditions
Atlanta, Georgia
Overcast Drizzle
Overcast
62°
Feels Like: 62°
Wind Chill: 62° Ceiling: 600
Heat Index: 62° Visibility: 6mi
Dew Point: 61° Wind: 14mph
Humidity: 96% Direction: 70° (ENE)
Pressure: 29.98in Gusts: 0mph
Raw Report DataKATL 231652Z 07012KT 6SM -DZ BR BKN006 BKN010 OVC015 17/16 A2998 RMK AO2 DZB48 SLP147 P0000 T01670161
Traffic Incident Summary
Active as of:
Severity:
Category:
InformationThere was an issue retrieving the traffic information for this location. Please try a different location or try again shortly.
Advertisements